Time;durP1;ratioP1;P1;durP2;ratioP2;P2;SDS_P1;SDS_P2;PMS_P1;PMS_P2;Temp;Humidity;BMP_temperature;BMP_pressure;BME280_temperature;BME280_humidity;BME280_pressure;Samples;Min_cycle;Max_cycle;Signal;HPM_P1;HPM_P2
2023/12/12 06:01:19;;;;;;;7.25;3.63;;;;;;;8.43;72.85;96069.84;4965831;28;20062;-80
2023/12/12 06:04:07;;;;;;;6.85;3.60;;;;;;;8.38;73.05;96055.78;5206480;23;20054;-82
2023/12/12 06:25:13;;;;;;;7.53;3.22;;;;;;;7.89;73.81;96025.16;4856131;29;20053;-81
2023/12/12 06:44:25;;;;;;;10.30;5.95;;;;;;;7.85;79.85;96081.84;4913542;29;20049;-81
2023/12/12 06:46:52;;;;;;;13.70;6.65;;;;;;;7.88;77.75;96078.09;4914909;29;20049;-81
2023/12/12 06:49:20;;;;;;;10.48;6.32;;;;;;;7.88;78.13;96071.09;4918824;29;20055;-81
2023/12/12 06:51:49;;;;;;;10.35;5.72;;;;;;;7.93;78.67;96073.94;4932676;29;20048;-81
2023/12/12 06:54:17;;;;;;;10.50;6.35;;;;;;;7.97;79.10;96080.41;4932690;29;20052;-81
2023/12/12 06:56:47;;;;;;;14.95;6.90;;;;;;;7.97;78.92;96064.81;4934181;29;20064;-81
2023/12/12 06:59:18;;;;;;;12.88;7.15;;;;;;;7.95;77.75;96066.00;4933935;29;20107;-81
2023/12/12 07:01:51;;;;;;;11.23;6.45;;;;;;;7.92;80.06;96054.16;4932762;29;20044;-81
2023/12/12 07:04:21;;;;;;;8.60;4.68;;;;;;;7.90;78.41;96039.75;4934176;29;20084;-81
2023/12/12 07:06:51;;;;;;;6.60;4.00;;;;;;;7.86;78.39;96044.50;4933475;29;20052;-81
2023/12/12 07:09:21;;;;;;;4.80;2.78;;;;;;;7.80;79.12;96033.00;4933798;29;20044;-81
2023/12/12 07:11:52;;;;;;;4.70;2.78;;;;;;;7.76;78.22;96031.78;4934531;29;20047;-81
2023/12/12 07:14:22;;;;;;;4.22;2.67;;;;;;;7.74;78.15;96027.72;4934479;29;20048;-81
2023/12/12 07:16:54;;;;;;;5.55;2.95;;;;;;;7.72;78.74;96024.50;4933962;29;20048;-80
2023/12/12 07:19:23;;;;;;;8.15;3.65;;;;;;;7.70;78.20;96029.09;4934131;29;20076;-81
2023/12/12 07:21:54;;;;;;;8.10;4.30;;;;;;;7.66;77.87;96020.84;4933765;29;20052;-81
2023/12/12 07:24:26;;;;;;;5.57;3.88;;;;;;;7.65;77.47;96021.81;4934109;29;20055;-82
2023/12/12 07:26:55;;;;;;;6.40;3.20;;;;;;;7.61;77.20;96023.19;4933839;29;20052;-81
2023/12/12 07:29:26;;;;;;;5.53;3.33;;;;;;;7.61;79.48;96020.59;4933514;29;20052;-81
2023/12/12 07:31:57;;;;;;;4.60;2.88;;;;;;;7.59;78.98;96025.94;4934037;29;20052;-81
2023/12/12 07:34:29;;;;;;;6.35;3.60;;;;;;;7.59;79.52;96030.34;4934081;29;20120;-81
2023/12/12 07:37:00;;;;;;;6.20;3.47;;;;;;;7.60;80.08;96037.13;4933560;29;20111;-82
2023/12/12 07:39:30;;;;;;;8.70;4.32;;;;;;;7.61;81.83;96034.34;4933604;29;20068;-81
2023/12/12 07:41:59;;;;;;;9.05;4.70;;;;;;;7.63;81.30;96031.56;4932590;29;20048;-81
2023/12/12 07:44:29;;;;;;;6.72;3.90;;;;;;;7.60;81.14;96031.94;4933638;29;20055;-81
2023/12/12 07:47:01;;;;;;;9.30;3.97;;;;;;;7.56;80.03;96033.25;4933556;29;20115;-81
2023/12/12 07:49:33;;;;;;;7.45;3.75;;;;;;;7.50;79.90;96037.38;4933418;29;20059;-81
2023/12/12 07:52:03;;;;;;;4.75;3.78;;;;;;;7.51;79.79;96043.38;4933748;29;20063;-81
2023/12/12 07:54:32;;;;;;;5.30;3.67;;;;;;;7.51;80.27;96044.16;4933387;29;20055;-81
2023/12/12 07:57:05;;;;;;;7.05;3.85;;;;;;;7.51;81.37;96046.78;4932683;29;20079;-81
2023/12/12 07:59:35;;;;;;;5.80;3.95;;;;;;;7.54;81.03;96048.19;4933566;29;20048;-81
2023/12/12 08:02:06;;;;;;;7.00;4.90;;;;;;;7.54;81.87;96049.03;4933102;29;20087;-81
2023/12/12 08:04:36;;;;;;;7.03;5.45;;;;;;;7.55;81.20;96044.63;4933112;29;20068;-81
2023/12/12 08:07:06;;;;;;;6.50;4.90;;;;;;;7.54;80.53;96043.00;4932183;29;20048;-81
2023/12/12 08:09:36;;;;;;;7.70;5.75;;;;;;;7.53;80.39;96037.03;4932569;29;20084;-81
2023/12/12 08:12:09;;;;;;;6.55;5.28;;;;;;;7.53;80.92;96023.25;4932834;29;20056;-81
2023/12/12 08:14:38;;;;;;;6.38;4.63;;;;;;;7.53;80.85;96025.84;4935464;29;20107;-81
2023/12/12 08:17:12;;;;;;;6.57;4.45;;;;;;;7.55;80.71;96023.88;4937100;29;20052;-83
2023/12/12 08:22:46;;;;;;;6.20;3.63;;;;;;;7.60;82.22;96031.94;4900184;29;20053;-81
2023/12/12 08:33:08;;;;;;;12.52;6.15;;;;;;;7.68;82.50;96031.84;4875244;29;19947;-81
2023/12/12 08:58:54;;;;;;;7.30;4.82;;;;;;;7.84;83.73;95971.97;4843613;29;20070;-81
2023/12/12 09:06:44;;;;;;;7.45;5.35;;;;;;;7.92;82.87;95936.50;4792682;29;20055;-81
2023/12/12 09:23:41;;;;;;;5.70;4.30;;;;;;;8.14;85.19;95951.16;5504725;23;20074;-81
2023/12/12 09:26:14;;;;;;;5.18;3.92;;;;;;;8.18;85.39;95962.81;4991503;28;20054;-81
2023/12/12 09:28:42;;;;;;;4.47;3.83;;;;;;;8.20;84.73;95962.63;4991513;28;20047;-81
2023/12/12 09:31:11;;;;;;;8.55;5.25;;;;;;;8.23;84.07;95970.84;4992106;28;20055;-81
2023/12/12 09:33:39;;;;;;;12.00;6.70;;;;;;;8.25;84.05;95962.88;4990235;28;20462;-81
2023/12/12 09:36:07;;;;;;;7.70;4.88;;;;;;;8.27;83.77;95970.50;4990425;28;20050;-81
2023/12/12 09:38:36;;;;;;;6.63;4.50;;;;;;;8.28;83.80;95966.91;4990120;28;20490;-81
2023/12/12 09:41:06;;;;;;;7.05;4.63;;;;;;;8.31;84.24;95956.94;4990554;28;20051;-81
2023/12/12 09:43:39;;;;;;;6.18;5.25;;;;;;;8.33;84.21;95944.59;4994920;28;20061;-81
2023/12/12 09:46:08;;;;;;;8.45;6.65;;;;;;;8.36;84.01;95938.22;4992978;28;20083;-81
2023/12/12 09:48:36;;;;;;;12.02;10.27;;;;;;;8.40;84.27;95949.84;4995005;28;20078;-81
2023/12/12 09:51:06;;;;;;;13.05;9.63;;;;;;;8.43;85.52;95949.50;4989139;28;20090;-81
2023/12/12 09:53:36;;;;;;;12.18;8.63;;;;;;;8.48;85.71;95936.75;4991408;28;20059;-82
2023/12/12 09:56:08;;;;;;;12.95;8.73;;;;;;;8.53;85.33;95921.41;4989167;28;20511;-82
2023/12/12 09:58:36;;;;;;;10.77;7.50;;;;;;;8.56;85.05;95921.03;4986582;28;20050;-81
2023/12/12 10:01:05;;;;;;;8.88;6.88;;;;;;;8.60;84.88;95909.28;4989145;28;20577;-81
2023/12/12 10:03:34;;;;;;;7.38;5.60;;;;;;;8.62;85.13;95896.91;4988173;28;20046;-81
2023/12/12 10:06:08;;;;;;;7.75;5.53;;;;;;;8.66;85.78;95892.94;4987476;28;20051;-81
2023/12/12 10:08:36;;;;;;;6.72;5.47;;;;;;;8.69;85.72;95896.16;4989327;28;20522;-81
2023/12/12 10:11:07;;;;;;;8.07;5.95;;;;;;;8.73;85.89;95907.81;4987774;28;20062;-81
2023/12/12 10:13:50;;;;;;;8.00;5.97;;;;;;;8.76;84.67;95897.00;4986314;28;20054;-81
2023/12/12 10:16:18;;;;;;;7.38;5.28;;;;;;;8.76;83.83;95886.63;4989494;28;20047;-81
2023/12/12 10:18:47;;;;;;;6.50;5.30;;;;;;;8.74;83.35;95888.59;4985931;28;20245;-81
2023/12/12 10:21:17;;;;;;;8.48;6.63;;;;;;;8.73;82.99;95892.19;4987861;28;20430;-81
2023/12/12 10:23:46;;;;;;;11.48;8.48;;;;;;;8.73;83.36;95880.00;4987767;28;20105;-81
2023/12/12 10:26:16;;;;;;;14.40;9.80;;;;;;;8.72;83.09;95872.38;4986950;28;20054;-81
2023/12/12 10:28:44;;;;;;;11.95;8.57;;;;;;;8.74;82.70;95873.00;4988193;28;20050;-81
2023/12/12 10:31:12;;;;;;;12.18;8.40;;;;;;;8.74;82.48;95873.78;4987514;28;20047;-81
2023/12/12 10:33:41;;;;;;;9.73;7.18;;;;;;;8.74;82.57;95873.00;4988332;28;20050;-81
2023/12/12 10:36:11;;;;;;;9.70;7.47;;;;;;;8.74;82.44;95870.41;4988492;28;20070;-81
2023/12/12 10:38:40;;;;;;;9.80;6.95;;;;;;;8.76;82.51;95873.63;4988482;28;20050;-81
2023/12/12 10:41:13;;;;;;;8.30;6.60;;;;;;;8.76;82.43;95861.41;4988550;28;20042;-81
2023/12/12 10:43:45;;;;;;;9.02;5.60;;;;;;;8.78;82.45;95861.22;4988311;28;20078;-81
2023/12/12 10:46:14;;;;;;;7.65;5.80;;;;;;;8.79;82.66;95850.66;4987145;28;20058;-81
2023/12/12 10:48:47;;;;;;;6.47;5.43;;;;;;;8.83;82.62;95856.25;4991687;28;20119;-81
2023/12/12 10:51:16;;;;;;;8.85;5.72;;;;;;;8.86;82.50;95845.50;4988950;28;20047;-81
2023/12/12 10:53:46;;;;;;;6.10;4.75;;;;;;;8.90;82.44;95830.28;4988880;28;20055;-81
2023/12/12 10:56:14;;;;;;;7.32;5.15;;;;;;;8.93;82.42;95833.34;4988946;28;20164;-81
2023/12/12 10:58:44;;;;;;;6.13;4.88;;;;;;;8.94;82.19;95827.13;4988971;28;20057;-81
2023/12/12 11:01:14;;;;;;;5.72;4.80;;;;;;;8.97;82.40;95818.97;4988140;28;20046;-81
2023/12/12 11:03:43;;;;;;;5.90;4.60;;;;;;;9.01;82.30;95814.19;4985271;28;20051;-81
2023/12/12 11:06:11;;;;;;;5.38;4.55;;;;;;;9.04;82.38;95808.59;4986964;28;20054;-81
2023/12/12 11:08:42;;;;;;;5.82;4.55;;;;;;;9.06;82.33;95810.00;4985427;28;20054;-81
2023/12/12 11:11:13;;;;;;;7.18;4.13;;;;;;;9.11;82.40;95811.22;4987887;28;20065;-81
2023/12/12 11:13:45;;;;;;;5.28;4.75;;;;;;;9.13;82.74;95812.63;4987252;28;20055;-81
2023/12/12 11:16:14;;;;;;;6.93;4.70;;;;;;;9.16;82.86;95804.47;4985736;28;20624;-81
2023/12/12 11:18:43;;;;;;;9.20;4.70;;;;;;;9.17;83.99;95806.06;4986673;28;20501;-81
2023/12/12 11:21:45;;;;;;;6.78;5.35;;;;;;;9.19;84.11;95795.47;4986671;28;20137;-81
2023/12/12 11:24:14;;;;;;;7.32;5.43;;;;;;;9.16;83.63;95788.03;4987900;28;20063;-81
2023/12/12 11:26:43;;;;;;;7.60;4.88;;;;;;;9.16;84.60;95790.63;4987423;28;20051;-80
2023/12/12 11:29:13;;;;;;;6.22;4.57;;;;;;;9.16;85.43;95794.06;4985884;28;20526;-81
2023/12/12 11:31:58;;;;;;;4.63;4.03;;;;;;;9.17;85.39;95780.03;4985950;28;20142;-81
2023/12/12 11:34:26;;;;;;;5.20;3.67;;;;;;;9.16;84.96;95777.63;4985867;28;20102;-81
2023/12/12 11:36:57;;;;;;;4.28;3.88;;;;;;;9.15;84.74;95776.81;4986013;28;20520;-81
2023/12/12 11:39:29;;;;;;;5.65;3.40;;;;;;;9.16;84.67;95775.03;4987929;28;20522;-81
2023/12/12 11:41:57;;;;;;;4.07;3.40;;;;;;;9.17;84.57;95764.44;4987429;28;20133;-81
2023/12/12 11:44:40;;;;;;;5.68;4.05;;;;;;;9.20;86.51;95763.22;4984999;28;20069;-81
2023/12/12 11:47:12;;;;;;;3.50;3.20;;;;;;;9.18;85.98;95747.84;4985867;28;20051;-81
2023/12/12 11:49:40;;;;;;;;;;;;;;;9.19;86.69;95731.22;4991367;28;20058;-81
2023/12/12 11:52:08;;;;;;;3.17;2.88;;;;;;;9.17;85.60;95735.00;4991466;28;19931;-81
2023/12/12 11:54:37;;;;;;;3.70;3.30;;;;;;;9.18;86.36;95721.00;4990964;28;20483;-81
2023/12/12 11:57:05;;;;;;;4.43;3.35;;;;;;;9.19;85.75;95720.00;4990758;28;20058;-81
2023/12/12 11:59:37;;;;;;;4.65;3.75;;;;;;;9.20;86.06;95712.00;4991971;28;20459;-81
2023/12/12 12:02:05;;;;;;;3.78;3.40;;;;;;;9.23;86.56;95710.81;4989143;28;20089;-81
2023/12/12 12:04:33;;;;;;;4.93;3.00;;;;;;;9.28;86.57;95714.44;4991079;28;20055;-81
2023/12/12 12:07:01;;;;;;;3.42;2.55;;;;;;;9.31;85.96;95702.03;4990432;28;20055;-81
2023/12/12 12:09:29;;;;;;;4.60;2.00;;;;;;;9.32;85.95;95709.66;4991117;28;20061;-81
2023/12/12 12:11:57;;;;;;;2.63;1.90;;;;;;;9.35;86.25;95698.03;4989171;28;20078;-81
2023/12/12 12:14:25;;;;;;;3.50;0.98;;;;;;;9.35;85.48;95693.63;4990134;28;20051;-81
2023/12/12 12:16:56;;;;;;;1.33;1.13;;;;;;;9.37;86.04;95691.63;4988794;28;20043;-81
2023/12/12 12:19:28;;;;;;;2.45;2.05;;;;;;;9.41;86.21;95682.44;4990499;28;20529;-81
2023/12/12 12:21:57;;;;;;;;;;;;;;;9.45;85.95;95682.84;4991310;28;20134;-81
2023/12/12 12:24:25;;;;;;;2.60;2.08;;;;;;;9.46;85.22;95661.03;4986733;28;19922;-81
2023/12/12 12:26:52;;;;;;;5.22;3.10;;;;;;;9.47;85.16;95666.03;4986801;28;20101;-81
2023/12/12 12:29:20;;;;;;;5.70;4.07;;;;;;;9.48;85.12;95659.81;4987629;28;20050;-81
2023/12/12 12:31:48;;;;;;;5.72;4.10;;;;;;;9.49;84.68;95651.03;4990307;28;20121;-81
2023/12/12 12:34:18;;;;;;;3.38;2.78;;;;;;;9.48;84.24;95639.00;4987630;28;20058;-81
2023/12/12 12:36:47;;;;;;;3.50;2.47;;;;;;;9.51;84.36;95629.19;4990409;28;20054;-81
2023/12/12 12:39:16;;;;;;;2.97;2.38;;;;;;;9.51;84.48;95630.00;4989028;28;20053;-81
2023/12/12 12:41:46;;;;;;;3.33;2.92;;;;;;;9.53;85.60;95614.16;4987297;28;20058;-81
2023/12/12 12:44:14;;;;;;;3.78;2.65;;;;;;;9.55;85.41;95614.78;4988440;28;20054;-81
2023/12/12 12:46:48;;;;;;;4.60;2.38;;;;;;;9.56;84.49;95614.59;5002133;28;20031;-81
2023/12/12 12:49:18;;;;;;;3.53;2.78;;;;;;;9.57;84.96;95618.78;5000016;28;20050;-81
2023/12/12 12:51:47;;;;;;;5.05;2.60;;;;;;;9.57;84.51;95607.56;4993133;28;20430;-81
2023/12/12 12:54:16;;;;;;;2.08;1.88;;;;;;;9.59;84.36;95611.56;4990775;28;20138;-81
2023/12/12 12:56:45;;;;;;;2.75;2.38;;;;;;;9.62;85.07;95620.78;4990221;28;20047;-81
2023/12/12 12:59:16;;;;;;;2.15;1.95;;;;;;;9.66;85.86;95624.59;4988738;28;20383;-81
2023/12/12 13:01:44;;;;;;;1.05;1.00;;;;;;;9.66;85.72;95609.78;4986064;28;20051;-81
2023/12/12 13:04:11;;;;;;;2.22;1.30;;;;;;;9.70;85.29;95629.19;4989194;28;20117;-81
2023/12/12 13:06:41;;;;;;;0.85;0.55;;;;;;;9.72;84.95;95623.78;4987976;28;20051;-81
2023/12/12 13:09:17;;;;;;;1.38;0.75;;;;;;;9.75;85.23;95613.00;4989579;28;20051;-81
2023/12/12 13:11:45;;;;;;;1.42;0.98;;;;;;;9.80;85.42;95610.59;4989466;28;20051;-81
2023/12/12 13:14:14;;;;;;;0.70;0.70;;;;;;;9.82;86.10;95600.75;4989397;28;20078;-81
2023/12/12 13:16:41;;;;;;;1.30;0.82;;;;;;;9.84;85.61;95593.56;4991766;28;20078;-82
2023/12/12 13:19:13;;;;;;;1.25;0.90;;;;;;;9.86;85.75;95580.31;4995485;28;20046;-81
2023/12/12 13:21:42;;;;;;;1.92;1.67;;;;;;;9.87;85.25;95567.09;4994694;28;20138;-81
2023/12/12 13:24:10;;;;;;;1.98;1.52;;;;;;;9.86;84.32;95556.88;4990048;28;20043;-81
2023/12/12 13:26:38;;;;;;;2.38;2.05;;;;;;;9.85;84.17;95558.69;4987538;28;20058;-81
2023/12/12 13:29:07;;;;;;;1.58;1.48;;;;;;;9.81;84.25;95554.88;4989173;28;20407;-82
2023/12/12 13:31:34;;;;;;;1.15;1.00;;;;;;;9.79;84.10;95546.44;4984885;28;20415;-81
2023/12/12 13:34:02;;;;;;;1.33;0.80;;;;;;;9.77;83.89;95553.66;4985954;28;20050;-81
2023/12/12 13:36:34;;;;;;;2.30;1.10;;;;;;;9.74;83.84;95548.88;4984750;28;20149;-81
2023/12/12 13:39:03;;;;;;;1.42;1.00;;;;;;;9.74;84.07;95546.28;4983957;28;20073;-81
2023/12/12 13:41:32;;;;;;;1.67;1.40;;;;;;;9.75;84.16;95550.50;4988621;28;20057;-81
2023/12/12 13:44:00;;;;;;;2.30;1.40;;;;;;;9.77;83.97;95552.88;4988764;28;20057;-81
2023/12/12 13:46:28;;;;;;;2.90;2.10;;;;;;;9.79;83.75;95553.47;4985761;28;20055;-81
2023/12/12 13:48:56;;;;;;;3.78;2.03;;;;;;;9.80;83.87;95558.50;4987467;28;20074;-81
2023/12/12 13:51:25;;;;;;;3.38;2.17;;;;;;;9.80;84.25;95566.31;4987512;28;20054;-82
2023/12/12 13:54:09;;;;;;;;;;;;;;;9.82;84.58;95574.72;4984363;28;20066;-81
2023/12/12 13:56:38;;;;;;;1.88;1.55;;;;;;;9.78;84.68;95573.50;4989253;28;19922;-81
2023/12/12 13:59:07;;;;;;;1.88;1.55;;;;;;;9.77;85.20;95576.31;4997647;28;20055;-81
2023/12/12 14:01:36;;;;;;;1.75;1.33;;;;;;;9.77;85.93;95561.47;4990809;28;20078;-81
2023/12/12 14:04:06;;;;;;;1.42;1.33;;;;;;;9.79;86.09;95559.47;4988584;28;20067;-82
2023/12/12 14:06:35;;;;;;;3.53;2.08;;;;;;;9.78;86.41;95576.13;4988041;28;20054;-82
2023/12/12 14:09:04;;;;;;;4.15;2.40;;;;;;;9.79;86.58;95579.53;4985946;28;20114;-82
2023/12/12 14:11:34;;;;;;;2.92;1.92;;;;;;;9.77;86.79;95577.09;4988169;28;20082;-82
2023/12/12 14:14:02;;;;;;;4.53;3.13;;;;;;;9.75;87.12;95563.50;4987007;28;20510;-82
2023/12/12 14:16:31;;;;;;;6.13;3.15;;;;;;;9.75;87.29;95573.94;4985473;28;20059;-82
2023/12/12 14:19:05;;;;;;;3.25;2.17;;;;;;;9.75;87.69;95591.34;4986738;28;20115;-81
2023/12/12 14:21:33;;;;;;;3.20;2.08;;;;;;;9.75;87.89;95594.75;4986353;28;20055;-81
2023/12/12 14:24:02;;;;;;;3.10;1.75;;;;;;;9.75;87.99;95604.34;4982713;28;20081;-82
2023/12/12 14:26:31;;;;;;;2.22;1.77;;;;;;;9.73;88.47;95617.59;4986775;28;20070;-82
2023/12/12 14:29:00;;;;;;;5.57;2.20;;;;;;;9.75;89.34;95620.81;4983924;28;20119;-81
2023/12/12 14:31:29;;;;;;;4.65;1.60;;;;;;;9.77;89.06;95612.78;4985262;28;20085;-81
2023/12/12 14:33:57;;;;;;;3.40;1.88;;;;;;;9.77;88.81;95628.41;4985366;28;20070;-82
2023/12/12 14:36:26;;;;;;;4.50;2.40;;;;;;;9.77;89.34;95626.59;4986273;28;20071;-82
2023/12/12 14:38:55;;;;;;;6.00;2.70;;;;;;;9.80;89.93;95628.03;4984038;28;20051;-81
2023/12/12 14:41:23;;;;;;;26.00;13.13;;;;;;;9.80;90.00;95613.19;4986006;28;20061;-82
2023/12/12 14:43:51;;;;;;;15.48;8.70;;;;;;;9.80;89.27;95610.59;4986027;28;20055;-81
2023/12/12 14:46:23;;;;;;;8.82;6.05;;;;;;;9.80;88.69;95602.78;4984779;28;20058;-82
2023/12/12 14:48:52;;;;;;;11.32;7.80;;;;;;;9.80;88.53;95578.53;4983319;28;20046;-82
2023/12/12 14:51:23;;;;;;;5.63;4.43;;;;;;;9.76;88.27;95567.72;4986412;28;20117;-82
2023/12/12 14:53:52;;;;;;;5.40;3.83;;;;;;;9.73;88.37;95560.31;4984097;28;20146;-81
2023/12/12 14:56:20;;;;;;;10.48;5.60;;;;;;;9.70;88.48;95555.47;4986667;28;20054;-82
2023/12/12 14:58:49;;;;;;;10.45;6.40;;;;;;;9.68;88.55;95534.06;4985958;28;20209;-81
2023/12/12 15:01:21;;;;;;;8.57;4.82;;;;;;;9.65;89.04;95517.03;4983977;28;20076;-82
2023/12/12 15:03:51;;;;;;;7.55;4.75;;;;;;;9.61;88.73;95497.59;4987744;28;20047;-82
2023/12/12 15:06:19;;;;;;;3.67;2.78;;;;;;;9.57;88.45;95482.59;4987201;28;20078;-81
2023/12/12 15:08:47;;;;;;;6.57;3.58;;;;;;;9.52;88.30;95482.41;4987577;28;20418;-81
2023/12/12 15:11:15;;;;;;;3.33;2.55;;;;;;;9.49;88.51;95492.22;4984742;28;20086;-81
2023/12/12 15:13:44;;;;;;;4.63;3.00;;;;;;;9.48;89.32;95500.22;4984560;28;20566;-81
2023/12/12 15:16:12;;;;;;;3.85;2.70;;;;;;;9.50;89.76;95498.22;4987792;28;20046;-82
2023/12/12 15:18:40;;;;;;;4.55;2.92;;;;;;;9.51;89.64;95493.81;4985156;28;20077;-82
2023/12/12 15:21:13;;;;;;;3.63;2.72;;;;;;;9.49;89.71;95502.63;4986611;28;20043;-82
2023/12/12 15:23:42;;;;;;;5.10;3.90;;;;;;;9.47;89.52;95494.22;4985192;28;20046;-82
2023/12/12 15:26:11;;;;;;;7.15;3.53;;;;;;;9.45;89.44;95475.41;4986335;28;20054;-82
2023/12/12 15:28:40;;;;;;;8.07;5.63;;;;;;;9.43;88.70;95461.78;4985585;28;20054;-82
2023/12/12 15:31:08;;;;;;;4.53;3.72;;;;;;;9.42;88.60;95454.19;4983519;28;20047;-81
2023/12/12 15:33:36;;;;;;;4.40;3.13;;;;;;;9.40;88.49;95438.78;4986396;28;20121;-82
2023/12/12 15:54:16;;;;;;;5.38;3.47;;;;;;;9.24;88.10;95458.19;5496581;23;20113;-81
2023/12/12 15:56:45;;;;;;;8.63;3.30;;;;;;;9.23;88.00;95450.63;4983515;28;20412;-82
2023/12/12 15:59:13;;;;;;;6.95;3.30;;;;;;;9.20;88.51;95440.59;4986444;28;20548;-81
2023/12/12 16:01:41;;;;;;;4.07;2.80;;;;;;;9.20;88.95;95433.56;4986999;28;20106;-82
2023/12/12 16:04:10;;;;;;;3.00;1.83;;;;;;;9.19;88.97;95424.19;4988727;28;20066;-81
2023/12/12 16:06:38;;;;;;;1.95;1.75;;;;;;;9.17;88.43;95428.00;4985913;28;20474;-82
2023/12/12 16:09:06;;;;;;;1.50;1.40;;;;;;;9.16;87.79;95439.38;4986074;28;20059;-81
2023/12/12 16:11:35;;;;;;;2.47;1.70;;;;;;;9.13;87.41;95450.22;4995726;28;20034;-81
2023/12/12 16:14:03;;;;;;;3.45;2.30;;;;;;;9.13;87.96;95458.00;4998466;28;20030;-81
2023/12/12 16:16:31;;;;;;;3.80;2.75;;;;;;;9.14;88.19;95473.44;4994965;28;20051;-82
2023/12/12 16:19:00;;;;;;;3.60;2.50;;;;;;;9.16;88.84;95470.59;4986607;28;20058;-82
2023/12/12 16:21:29;;;;;;;4.45;2.95;;;;;;;9.17;88.79;95467.81;4985078;28;20081;-81
2023/12/12 16:23:58;;;;;;;3.17;2.50;;;;;;;9.19;88.75;95475.44;4985719;28;20137;-82
2023/12/12 16:26:27;;;;;;;3.35;2.58;;;;;;;9.20;88.97;95471.81;4986447;28;20063;-81
2023/12/12 16:28:57;;;;;;;3.05;2.72;;;;;;;9.21;89.01;95457.81;4986618;28;20137;-81
2023/12/12 16:31:25;;;;;;;3.25;2.20;;;;;;;9.24;88.81;95458.19;4986586;28;20061;-81
2023/12/12 16:33:55;;;;;;;2.88;2.55;;;;;;;9.21;88.21;95453.41;4986939;28;20046;-81
2023/12/12 16:36:24;;;;;;;2.83;2.53;;;;;;;9.20;88.74;95436.19;4988864;28;20051;-81
2023/12/12 16:38:59;;;;;;;2.73;2.43;;;;;;;9.20;88.96;95436.19;4987125;28;20064;-82
2023/12/12 16:41:28;;;;;;;3.63;2.20;;;;;;;9.18;88.13;95433.00;4987195;28;20055;-81
2023/12/12 16:43:58;;;;;;;1.88;1.67;;;;;;;9.17;88.07;95425.41;4990894;28;20070;-81
2023/12/12 16:46:26;;;;;;;2.47;1.08;;;;;;;9.16;87.59;95424.59;4996129;28;20047;-81
2023/12/12 16:48:55;;;;;;;1.75;1.48;;;;;;;9.16;87.39;95421.16;4991905;28;20541;-81
2023/12/12 16:51:24;;;;;;;2.88;1.92;;;;;;;9.17;87.85;95425.41;4988236;28;20059;-81
2023/12/12 16:53:52;;;;;;;2.92;2.22;;;;;;;9.17;87.74;95420.97;4987920;28;20573;-81
2023/12/12 16:56:23;;;;;;;2.10;1.85;;;;;;;9.19;87.71;95418.19;4990403;28;20110;-82
2023/12/12 16:58:51;;;;;;;3.78;2.35;;;;;;;9.16;87.94;95415.97;4988114;28;20074;-81
2023/12/12 17:01:21;;;;;;;2.25;1.80;;;;;;;9.16;87.70;95414.19;4989813;28;20462;-81
2023/12/12 17:03:50;;;;;;;2.72;2.20;;;;;;;9.15;87.89;95417.78;4985747;28;20101;-82
2023/12/12 17:06:20;;;;;;;1.80;1.70;;;;;;;9.16;88.14;95405.56;4989937;28;20078;-82
2023/12/12 17:08:50;;;;;;;2.38;1.95;;;;;;;9.13;88.19;95414.56;4990477;28;20051;-81
2023/12/12 17:11:19;;;;;;;3.00;2.70;;;;;;;9.12;88.26;95409.56;4987703;28;20061;-81
2023/12/12 17:13:47;;;;;;;2.55;2.25;;;;;;;9.11;88.24;95405.38;4990382;28;20057;-81
2023/12/12 17:16:16;;;;;;;2.90;2.60;;;;;;;9.10;88.33;95390.78;4989361;28;20047;-82
2023/12/12 17:18:46;;;;;;;4.57;2.90;;;;;;;9.08;88.15;95396.19;4989012;28;20047;-81
2023/12/12 17:21:14;;;;;;;3.58;3.28;;;;;;;9.04;88.62;95395.78;4989461;28;20061;-81
2023/12/12 17:23:43;;;;;;;3.38;2.70;;;;;;;9.03;88.86;95381.19;4990795;28;20051;-82
2023/12/12 17:26:15;;;;;;;2.92;1.73;;;;;;;9.01;88.70;95385.78;4991066;28;20053;-82
2023/12/12 17:28:44;;;;;;;1.75;1.40;;;;;;;9.00;88.93;95386.78;4989459;28;20481;-81
2023/12/12 17:31:12;;;;;;;2.85;2.10;;;;;;;9.03;89.32;95402.00;4988607;28;20065;-81
2023/12/12 17:33:41;;;;;;;2.17;1.98;;;;;;;9.05;90.40;95407.78;4982989;28;20137;-81
2023/12/12 17:36:10;;;;;;;2.42;1.77;;;;;;;9.07;89.90;95397.16;4963767;28;20109;-80
2023/12/12 17:38:42;;;;;;;2.58;2.17;;;;;;;9.06;89.14;95408.59;4977627;28;20065;-81
2023/12/12 17:41:14;;;;;;;2.42;2.22;;;;;;;9.03;88.46;95394.19;4975861;28;20051;-81
2023/12/12 17:43:42;;;;;;;3.13;2.55;;;;;;;9.00;88.21;95399.78;4976880;28;20077;-81
2023/12/12 17:46:10;;;;;;;3.90;2.85;;;;;;;8.98;88.20;95396.56;4979442;28;20125;-81
2023/12/12 17:48:38;;;;;;;3.70;2.70;;;;;;;8.96;87.95;95403.78;4980316;28;20065;-81
2023/12/12 17:51:06;;;;;;;2.88;2.58;;;;;;;8.95;88.17;95404.00;4979127;28;20098;-81
2023/12/12 17:53:35;;;;;;;4.20;3.80;;;;;;;8.94;88.50;95410.97;4975789;28;20471;-81
2023/12/12 17:56:03;;;;;;;3.10;2.80;;;;;;;8.94;88.72;95405.78;4975643;28;20081;-81
2023/12/12 17:58:31;;;;;;;3.60;3.15;;;;;;;8.97;88.72;95410.59;4975805;28;20054;-81
2023/12/12 18:00:59;;;;;;;6.95;3.88;;;;;;;9.00;89.32;95399.78;4975470;28;20051;-81
2023/12/12 18:03:28;;;;;;;5.90;4.18;;;;;;;9.06;89.32;95398.19;4975982;28;20053;-81
2023/12/12 18:09:03;;;;;;;3.05;2.75;;;;;;;9.13;88.43;95401.56;4978748;28;20069;-81
2023/12/12 18:21:45;;;;;;;4.32;2.47;;;;;;;9.16;87.58;95371.75;5169689;23;20062;-82
2023/12/12 18:24:17;;;;;;;4.20;2.65;;;;;;;9.17;88.48;95368.94;4982635;28;20573;-81
2023/12/12 18:26:45;;;;;;;3.47;3.17;;;;;;;9.19;88.38;95379.16;4968595;28;20056;-80
2023/12/12 18:29:13;;;;;;;3.10;2.47;;;;;;;9.19;88.19;95377.34;4975703;28;20105;-81
2023/12/12 18:31:41;;;;;;;3.45;2.60;;;;;;;9.22;88.38;95394.34;4974962;28;20047;-81
2023/12/12 18:34:10;;;;;;;5.68;2.80;;;;;;;9.24;88.54;95394.94;4972677;28;20043;-80
2023/12/12 18:36:38;;;;;;;3.03;2.50;;;;;;;9.29;88.73;95400.34;4973090;28;20415;-80
2023/12/12 18:39:06;;;;;;;3.85;3.20;;;;;;;9.31;88.55;95411.34;4979326;28;20118;-80
2023/12/12 18:41:37;;;;;;;3.65;3.22;;;;;;;9.34;89.20;95421.38;4980234;28;20070;-80
2023/12/12 18:44:06;;;;;;;5.05;3.80;;;;;;;9.34;89.10;95423.97;4980544;28;20051;-81
2023/12/12 18:46:34;;;;;;;7.25;4.32;;;;;;;9.36;89.16;95408.97;4982563;28;20434;-81
2023/12/12 18:49:03;;;;;;;5.93;5.03;;;;;;;9.38;89.70;95403.53;4978129;28;20077;-81
2023/12/12 18:51:34;;;;;;;5.43;3.97;;;;;;;9.41;89.88;95397.94;4976224;28;20429;-81
2023/12/12 18:54:05;;;;;;;4.57;3.88;;;;;;;9.41;89.68;95390.13;4976455;28;20404;-80
2023/12/12 18:56:55;;;;;;;5.53;4.40;;;;;;;9.42;91.40;95389.94;4975369;28;20101;-81
2023/12/12 19:02:24;;;;;;;4.13;3.70;;;;;;;9.45;90.22;95384.31;5888756;23;20065;-81
2023/12/12 19:04:52;;;;;;;4.45;3.65;;;;;;;9.48;90.02;95383.88;4976553;28;20038;-81
2023/12/12 19:07:20;;;;;;;9.13;7.10;;;;;;;9.51;90.82;95387.09;4976638;28;20054;-81
2023/12/12 19:09:54;;;;;;;5.38;4.15;;;;;;;9.52;90.71;95386.88;4975596;28;20055;-81
2023/12/12 19:12:23;;;;;;;9.63;5.15;;;;;;;9.52;89.93;95386.88;4974516;28;20058;-80
2023/12/12 19:14:52;;;;;;;9.25;5.72;;;;;;;9.52;89.72;95391.31;4962062;28;20502;-81
2023/12/12 19:17:21;;;;;;;11.00;7.78;;;;;;;9.48;89.21;95390.91;4976196;28;20487;-81
2023/12/12 19:35:54;;;;;;;5.90;4.07;;;;;;;9.53;89.81;95388.47;4957053;29;20288;-81
2023/12/12 19:38:24;;;;;;;6.57;5.28;;;;;;;9.52;89.31;95380.88;4957030;29;20059;-81
2023/12/12 19:40:54;;;;;;;8.10;5.18;;;;;;;9.48;89.72;95378.69;4955416;29;20047;-81
2023/12/12 19:43:24;;;;;;;10.25;6.38;;;;;;;9.48;89.65;95381.28;4955806;29;20134;-80
2023/12/12 19:45:53;;;;;;;8.60;5.20;;;;;;;9.45;89.66;95381.69;4955419;29;20054;-80
2023/12/12 19:48:24;;;;;;;9.93;7.00;;;;;;;9.47;90.07;95384.09;4956162;29;20057;-81
2023/12/12 19:50:54;;;;;;;13.30;7.18;;;;;;;9.46;90.27;95375.47;4955419;29;20140;-81
2023/12/12 19:53:22;;;;;;;14.32;8.82;;;;;;;9.47;90.03;95369.28;4955926;28;20396;-79
2023/12/12 19:55:50;;;;;;;11.52;6.65;;;;;;;9.47;90.02;95363.28;4974265;28;20065;-79
2023/12/12 19:58:19;;;;;;;9.43;5.45;;;;;;;9.47;89.74;95369.28;4975330;28;20061;-80
2023/12/12 20:00:47;;;;;;;11.40;6.93;;;;;;;9.48;90.04;95364.88;4974763;28;20058;-80
2023/12/12 20:03:16;;;;;;;12.23;7.43;;;;;;;9.48;89.74;95375.28;4973586;28;20055;-80
2023/12/12 20:05:45;;;;;;;13.70;7.57;;;;;;;9.47;89.56;95382.31;4973415;28;20097;-80
2023/12/12 20:08:13;;;;;;;15.32;8.48;;;;;;;9.48;89.67;95389.09;4971164;28;20050;-80
2023/12/12 20:10:40;;;;;;;15.93;9.07;;;;;;;9.52;89.86;95370.47;4974747;28;20725;-80
2023/12/12 20:13:08;;;;;;;11.85;7.25;;;;;;;9.53;89.57;95359.03;4977461;28;20138;-80